sensor_id;sensor_type;location;lat;lon;timestamp;P1;durP1;ratioP1;P2;durP2;ratioP2
78844;SDS011;68195;50.854;2.860;2024-01-25T00:00:29;13.50;;;3.70;;
78844;SDS011;68195;50.854;2.860;2024-01-25T00:02:57;15.65;;;3.85;;
78844;SDS011;68195;50.854;2.860;2024-01-25T00:05:22;21.10;;;4.68;;
78844;SDS011;68195;50.854;2.860;2024-01-25T00:07:50;28.83;;;5.10;;
78844;SDS011;68195;50.854;2.860;2024-01-25T00:10:16;32.47;;;4.35;;
78844;SDS011;68195;50.854;2.860;2024-01-25T00:12:45;24.33;;;4.25;;
78844;SDS011;68195;50.854;2.860;2024-01-25T00:15:15;21.98;;;5.22;;
78844;SDS011;68195;50.854;2.860;2024-01-25T00:17:41;19.05;;;3.88;;
78844;SDS011;68195;50.854;2.860;2024-01-25T00:20:08;18.30;;;5.30;;
78844;SDS011;68195;50.854;2.860;2024-01-25T00:22:36;16.30;;;4.53;;
78844;SDS011;68195;50.854;2.860;2024-01-25T00:25:05;24.13;;;4.03;;
78844;SDS011;68195;50.854;2.860;2024-01-25T00:27:31;16.25;;;3.95;;
78844;SDS011;68195;50.854;2.860;2024-01-25T00:29:59;23.35;;;3.83;;
78844;SDS011;68195;50.854;2.860;2024-01-25T00:32:24;16.42;;;4.88;;
78844;SDS011;68195;50.854;2.860;2024-01-25T00:34:52;16.73;;;3.88;;
78844;SDS011;68195;50.854;2.860;2024-01-25T00:37:17;16.98;;;4.05;;
78844;SDS011;68195;50.854;2.860;2024-01-25T00:39:45;21.35;;;4.45;;
78844;SDS011;68195;50.854;2.860;2024-01-25T00:42:12;24.23;;;4.18;;
78844;SDS011;68195;50.854;2.860;2024-01-25T00:44:40;22.40;;;3.30;;
78844;SDS011;68195;50.854;2.860;2024-01-25T00:47:06;17.50;;;3.95;;
78844;SDS011;68195;50.854;2.860;2024-01-25T00:49:32;17.33;;;4.57;;
78844;SDS011;68195;50.854;2.860;2024-01-25T00:52:02;26.23;;;4.13;;
78844;SDS011;68195;50.854;2.860;2024-01-25T00:54:28;18.60;;;3.83;;
78844;SDS011;68195;50.854;2.860;2024-01-25T00:57:01;16.33;;;4.50;;
78844;SDS011;68195;50.854;2.860;2024-01-25T00:59:29;16.77;;;3.60;;
78844;SDS011;68195;50.854;2.860;2024-01-25T01:01:55;21.13;;;4.43;;
78844;SDS011;68195;50.854;2.860;2024-01-25T01:04:23;17.23;;;4.38;;
78844;SDS011;68195;50.854;2.860;2024-01-25T01:06:49;17.23;;;4.20;;
78844;SDS011;68195;50.854;2.860;2024-01-25T01:09:14;18.52;;;4.50;;
78844;SDS011;68195;50.854;2.860;2024-01-25T01:11:40;14.68;;;3.58;;
78844;SDS011;68195;50.854;2.860;2024-01-25T01:14:05;18.92;;;4.10;;
78844;SDS011;68195;50.854;2.860;2024-01-25T01:16:33;14.77;;;3.47;;
78844;SDS011;68195;50.854;2.860;2024-01-25T01:19:03;20.95;;;4.40;;
78844;SDS011;68195;50.854;2.860;2024-01-25T01:21:33;17.70;;;4.10;;
78844;SDS011;68195;50.854;2.860;2024-01-25T01:24:01;16.90;;;3.95;;
78844;SDS011;68195;50.854;2.860;2024-01-25T01:26:31;20.55;;;3.70;;
78844;SDS011;68195;50.854;2.860;2024-01-25T01:28:59;20.95;;;5.40;;
78844;SDS011;68195;50.854;2.860;2024-01-25T01:31:27;15.15;;;3.30;;
78844;SDS011;68195;50.854;2.860;2024-01-25T01:33:55;15.30;;;4.13;;
78844;SDS011;68195;50.854;2.860;2024-01-25T01:36:23;12.82;;;3.05;;
78844;SDS011;68195;50.854;2.860;2024-01-25T01:38:50;11.38;;;3.60;;
78844;SDS011;68195;50.854;2.860;2024-01-25T01:41:18;14.10;;;3.72;;
78844;SDS011;68195;50.854;2.860;2024-01-25T01:43:46;16.05;;;3.72;;
78844;SDS011;68195;50.854;2.860;2024-01-25T01:46:37;18.42;;;4.03;;
78844;SDS011;68195;50.854;2.860;2024-01-25T01:49:06;14.82;;;3.80;;
78844;SDS011;68195;50.854;2.860;2024-01-25T01:51:33;15.23;;;3.10;;
78844;SDS011;68195;50.854;2.860;2024-01-25T01:56:33;11.23;;;3.25;;
78844;SDS011;68195;50.854;2.860;2024-01-25T01:59:02;21.60;;;4.28;;
78844;SDS011;68195;50.854;2.860;2024-01-25T02:01:37;19.00;;;4.18;;
78844;SDS011;68195;50.854;2.860;2024-01-25T02:04:08;19.00;;;3.00;;
78844;SDS011;68195;50.854;2.860;2024-01-25T02:06:35;13.40;;;2.95;;
78844;SDS011;68195;50.854;2.860;2024-01-25T02:09:04;16.85;;;3.72;;
78844;SDS011;68195;50.854;2.860;2024-01-25T02:11:32;10.57;;;2.83;;
78844;SDS011;68195;50.854;2.860;2024-01-25T02:14:00;11.85;;;3.90;;
78844;SDS011;68195;50.854;2.860;2024-01-25T02:16:25;19.33;;;4.18;;
78844;SDS011;68195;50.854;2.860;2024-01-25T02:18:53;19.13;;;4.47;;
78844;SDS011;68195;50.854;2.860;2024-01-25T02:21:26;15.77;;;3.67;;
78844;SDS011;68195;50.854;2.860;2024-01-25T02:23:51;12.85;;;3.60;;
78844;SDS011;68195;50.854;2.860;2024-01-25T02:26:19;16.75;;;3.47;;
78844;SDS011;68195;50.854;2.860;2024-01-25T02:28:45;15.95;;;3.50;;
78844;SDS011;68195;50.854;2.860;2024-01-25T02:31:10;16.27;;;3.28;;
78844;SDS011;68195;50.854;2.860;2024-01-25T02:33:35;11.32;;;3.88;;
78844;SDS011;68195;50.854;2.860;2024-01-25T02:36:01;13.48;;;3.40;;
78844;SDS011;68195;50.854;2.860;2024-01-25T02:38:26;14.68;;;3.60;;
78844;SDS011;68195;50.854;2.860;2024-01-25T02:40:52;14.75;;;3.13;;
78844;SDS011;68195;50.854;2.860;2024-01-25T02:43:19;14.18;;;3.78;;
78844;SDS011;68195;50.854;2.860;2024-01-25T02:45:45;13.25;;;3.28;;
78844;SDS011;68195;50.854;2.860;2024-01-25T02:48:10;13.45;;;3.58;;
78844;SDS011;68195;50.854;2.860;2024-01-25T02:50:38;17.15;;;4.35;;
78844;SDS011;68195;50.854;2.860;2024-01-25T02:53:05;12.32;;;2.67;;
78844;SDS011;68195;50.854;2.860;2024-01-25T02:55:31;12.38;;;2.65;;
78844;SDS011;68195;50.854;2.860;2024-01-25T02:57:56;12.38;;;3.67;;
78844;SDS011;68195;50.854;2.860;2024-01-25T03:00:21;10.85;;;2.75;;
78844;SDS011;68195;50.854;2.860;2024-01-25T03:02:47;10.70;;;2.63;;
78844;SDS011;68195;50.854;2.860;2024-01-25T03:05:16;12.98;;;3.53;;
78844;SDS011;68195;50.854;2.860;2024-01-25T03:07:42;18.88;;;4.38;;
78844;SDS011;68195;50.854;2.860;2024-01-25T03:10:10;10.43;;;3.10;;
78844;SDS011;68195;50.854;2.860;2024-01-25T03:12:38;13.45;;;3.60;;
78844;SDS011;68195;50.854;2.860;2024-01-25T03:15:04;23.58;;;5.13;;
78844;SDS011;68195;50.854;2.860;2024-01-25T03:17:30;12.98;;;3.78;;
78844;SDS011;68195;50.854;2.860;2024-01-25T03:19:55;12.30;;;3.20;;
78844;SDS011;68195;50.854;2.860;2024-01-25T03:22:21;16.35;;;3.45;;
78844;SDS011;68195;50.854;2.860;2024-01-25T03:24:48;13.55;;;4.00;;
78844;SDS011;68195;50.854;2.860;2024-01-25T03:27:14;14.43;;;3.67;;
78844;SDS011;68195;50.854;2.860;2024-01-25T03:29:42;18.50;;;5.40;;
78844;SDS011;68195;50.854;2.860;2024-01-25T03:32:12;18.17;;;3.53;;
78844;SDS011;68195;50.854;2.860;2024-01-25T03:34:37;14.32;;;3.95;;
78844;SDS011;68195;50.854;2.860;2024-01-25T03:37:03;13.70;;;3.58;;
78844;SDS011;68195;50.854;2.860;2024-01-25T03:39:28;16.98;;;3.53;;
78844;SDS011;68195;50.854;2.860;2024-01-25T03:41:56;11.00;;;2.70;;
78844;SDS011;68195;50.854;2.860;2024-01-25T03:44:24;11.05;;;3.42;;
78844;SDS011;68195;50.854;2.860;2024-01-25T03:46:49;8.95;;;3.05;;
78844;SDS011;68195;50.854;2.860;2024-01-25T03:49:17;17.90;;;3.53;;
78844;SDS011;68195;50.854;2.860;2024-01-25T03:51:47;17.42;;;3.78;;
78844;SDS011;68195;50.854;2.860;2024-01-25T03:54:15;12.30;;;3.33;;
78844;SDS011;68195;50.854;2.860;2024-01-25T03:56:45;8.02;;;2.95;;
78844;SDS011;68195;50.854;2.860;2024-01-25T03:59:13;20.13;;;4.25;;
78844;SDS011;68195;50.854;2.860;2024-01-25T04:01:44;10.38;;;2.75;;
78844;SDS011;68195;50.854;2.860;2024-01-25T04:04:15;20.58;;;3.85;;
78844;SDS011;68195;50.854;2.860;2024-01-25T04:06:41;12.27;;;2.40;;
78844;SDS011;68195;50.854;2.860;2024-01-25T04:09:13;16.77;;;3.60;;
78844;SDS011;68195;50.854;2.860;2024-01-25T04:11:41;16.70;;;3.17;;
78844;SDS011;68195;50.854;2.860;2024-01-25T04:14:07;19.00;;;3.35;;
78844;SDS011;68195;50.854;2.860;2024-01-25T04:16:35;13.32;;;4.47;;
78844;SDS011;68195;50.854;2.860;2024-01-25T04:19:03;12.98;;;3.53;;
78844;SDS011;68195;50.854;2.860;2024-01-25T04:21:31;24.88;;;3.92;;
78844;SDS011;68195;50.854;2.860;2024-01-25T04:24:02;12.55;;;4.10;;
78844;SDS011;68195;50.854;2.860;2024-01-25T04:26:30;15.52;;;3.67;;
78844;SDS011;68195;50.854;2.860;2024-01-25T04:28:55;19.27;;;4.18;;
78844;SDS011;68195;50.854;2.860;2024-01-25T04:31:21;23.35;;;4.82;;
78844;SDS011;68195;50.854;2.860;2024-01-25T04:33:46;13.45;;;3.65;;
78844;SDS011;68195;50.854;2.860;2024-01-25T04:36:12;14.30;;;3.50;;
78844;SDS011;68195;50.854;2.860;2024-01-25T04:38:40;17.83;;;4.55;;
78844;SDS011;68195;50.854;2.860;2024-01-25T04:41:07;19.55;;;3.67;;
78844;SDS011;68195;50.854;2.860;2024-01-25T04:43:36;28.30;;;4.13;;
78844;SDS011;68195;50.854;2.860;2024-01-25T04:46:03;10.80;;;3.85;;
78844;SDS011;68195;50.854;2.860;2024-01-25T04:48:29;14.07;;;4.07;;
78844;SDS011;68195;50.854;2.860;2024-01-25T04:50:57;11.60;;;3.03;;
78844;SDS011;68195;50.854;2.860;2024-01-25T04:53:28;10.77;;;4.65;;
78844;SDS011;68195;50.854;2.860;2024-01-25T04:55:55;6.50;;;3.15;;
78844;SDS011;68195;50.854;2.860;2024-01-25T04:58:24;11.35;;;3.05;;
78844;SDS011;68195;50.854;2.860;2024-01-25T05:00:52;5.20;;;2.47;;
78844;SDS011;68195;50.854;2.860;2024-01-25T05:03:20;5.50;;;2.17;;
78844;SDS011;68195;50.854;2.860;2024-01-25T05:05:45;7.15;;;2.70;;
78844;SDS011;68195;50.854;2.860;2024-01-25T05:08:11;9.18;;;3.03;;
78844;SDS011;68195;50.854;2.860;2024-01-25T05:10:39;7.93;;;2.78;;
78844;SDS011;68195;50.854;2.860;2024-01-25T05:13:07;4.53;;;2.53;;
78844;SDS011;68195;50.854;2.860;2024-01-25T05:15:32;4.20;;;2.35;;
78844;SDS011;68195;50.854;2.860;2024-01-25T05:18:04;3.38;;;2.15;;
78844;SDS011;68195;50.854;2.860;2024-01-25T05:20:32;4.05;;;2.00;;
78844;SDS011;68195;50.854;2.860;2024-01-25T05:23:02;4.32;;;2.30;;
78844;SDS011;68195;50.854;2.860;2024-01-25T05:27:56;4.13;;;2.05;;
78844;SDS011;68195;50.854;2.860;2024-01-25T05:30:24;5.00;;;2.45;;
78844;SDS011;68195;50.854;2.860;2024-01-25T05:32:51;4.93;;;2.22;;
78844;SDS011;68195;50.854;2.860;2024-01-25T05:35:18;4.90;;;2.30;;
78844;SDS011;68195;50.854;2.860;2024-01-25T05:37:49;5.35;;;2.10;;
78844;SDS011;68195;50.854;2.860;2024-01-25T05:40:14;5.43;;;2.10;;
78844;SDS011;68195;50.854;2.860;2024-01-25T05:42:42;3.85;;;1.85;;
78844;SDS011;68195;50.854;2.860;2024-01-25T05:45:08;7.10;;;2.67;;
78844;SDS011;68195;50.854;2.860;2024-01-25T05:47:36;8.10;;;2.97;;
78844;SDS011;68195;50.854;2.860;2024-01-25T05:50:02;12.10;;;2.75;;
78844;SDS011;68195;50.854;2.860;2024-01-25T05:52:30;5.47;;;2.45;;
78844;SDS011;68195;50.854;2.860;2024-01-25T05:55:01;9.18;;;3.17;;
78844;SDS011;68195;50.854;2.860;2024-01-25T05:57:29;6.35;;;2.88;;
78844;SDS011;68195;50.854;2.860;2024-01-25T05:59:54;10.18;;;2.58;;
78844;SDS011;68195;50.854;2.860;2024-01-25T06:02:22;6.50;;;2.80;;
78844;SDS011;68195;50.854;2.860;2024-01-25T06:04:47;6.15;;;2.28;;
78844;SDS011;68195;50.854;2.860;2024-01-25T06:07:17;8.88;;;3.28;;
78844;SDS011;68195;50.854;2.860;2024-01-25T06:09:47;8.13;;;2.63;;
78844;SDS011;68195;50.854;2.860;2024-01-25T06:12:13;10.80;;;3.20;;
78844;SDS011;68195;50.854;2.860;2024-01-25T06:14:38;7.38;;;3.60;;
78844;SDS011;68195;50.854;2.860;2024-01-25T06:17:03;11.93;;;3.95;;
78844;SDS011;68195;50.854;2.860;2024-01-25T06:19:31;12.73;;;3.75;;
78844;SDS011;68195;50.854;2.860;2024-01-25T06:21:59;13.30;;;3.85;;
78844;SDS011;68195;50.854;2.860;2024-01-25T06:24:25;11.93;;;3.53;;
78844;SDS011;68195;50.854;2.860;2024-01-25T06:26:55;10.90;;;3.92;;
78844;SDS011;68195;50.854;2.860;2024-01-25T06:29:20;11.77;;;4.85;;
78844;SDS011;68195;50.854;2.860;2024-01-25T06:31:46;14.73;;;3.33;;
78844;SDS011;68195;50.854;2.860;2024-01-25T06:34:14;9.38;;;3.40;;
78844;SDS011;68195;50.854;2.860;2024-01-25T06:36:40;13.85;;;3.35;;
78844;SDS011;68195;50.854;2.860;2024-01-25T06:39:05;15.13;;;4.60;;
78844;SDS011;68195;50.854;2.860;2024-01-25T06:41:31;12.98;;;3.75;;
78844;SDS011;68195;50.854;2.860;2024-01-25T06:43:58;10.43;;;3.78;;
78844;SDS011;68195;50.854;2.860;2024-01-25T06:46:24;11.63;;;4.20;;
78844;SDS011;68195;50.854;2.860;2024-01-25T06:48:52;15.52;;;4.30;;
78844;SDS011;68195;50.854;2.860;2024-01-25T06:51:20;15.45;;;4.35;;
78844;SDS011;68195;50.854;2.860;2024-01-25T06:53:45;11.73;;;4.75;;
78844;SDS011;68195;50.854;2.860;2024-01-25T06:56:10;16.02;;;4.50;;
78844;SDS011;68195;50.854;2.860;2024-01-25T06:58:36;12.73;;;4.80;;
78844;SDS011;68195;50.854;2.860;2024-01-25T07:01:01;12.23;;;4.18;;
78844;SDS011;68195;50.854;2.860;2024-01-25T07:03:29;11.70;;;4.13;;
78844;SDS011;68195;50.854;2.860;2024-01-25T07:05:59;14.00;;;5.13;;
78844;SDS011;68195;50.854;2.860;2024-01-25T07:08:31;9.77;;;4.38;;
78844;SDS011;68195;50.854;2.860;2024-01-25T07:10:58;8.98;;;4.13;;
78844;SDS011;68195;50.854;2.860;2024-01-25T07:13:26;11.77;;;5.03;;
78844;SDS011;68195;50.854;2.860;2024-01-25T07:15:54;6.80;;;3.75;;
78844;SDS011;68195;50.854;2.860;2024-01-25T07:18:19;8.38;;;4.20;;
78844;SDS011;68195;50.854;2.860;2024-01-25T07:20:49;14.48;;;4.57;;
78844;SDS011;68195;50.854;2.860;2024-01-25T07:23:20;9.00;;;4.05;;
78844;SDS011;68195;50.854;2.860;2024-01-25T07:25:48;11.32;;;4.63;;
78844;SDS011;68195;50.854;2.860;2024-01-25T07:28:16;9.43;;;4.45;;
78844;SDS011;68195;50.854;2.860;2024-01-25T07:30:46;8.65;;;3.75;;
78844;SDS011;68195;50.854;2.860;2024-01-25T07:33:12;9.30;;;4.32;;
78844;SDS011;68195;50.854;2.860;2024-01-25T07:35:37;11.30;;;4.75;;
78844;SDS011;68195;50.854;2.860;2024-01-25T07:38:06;9.88;;;4.30;;
78844;SDS011;68195;50.854;2.860;2024-01-25T07:40:32;8.98;;;4.10;;
78844;SDS011;68195;50.854;2.860;2024-01-25T07:43:00;12.38;;;4.28;;
78844;SDS011;68195;50.854;2.860;2024-01-25T07:45:28;9.73;;;3.33;;
78844;SDS011;68195;50.854;2.860;2024-01-25T07:47:53;5.60;;;3.85;;
78844;SDS011;68195;50.854;2.860;2024-01-25T07:50:19;9.80;;;4.53;;
78844;SDS011;68195;50.854;2.860;2024-01-25T07:52:44;14.25;;;4.65;;
78844;SDS011;68195;50.854;2.860;2024-01-25T07:55:10;12.90;;;3.60;;
78844;SDS011;68195;50.854;2.860;2024-01-25T07:57:37;9.73;;;4.05;;
78844;SDS011;68195;50.854;2.860;2024-01-25T08:00:05;13.27;;;4.70;;
78844;SDS011;68195;50.854;2.860;2024-01-25T08:02:35;13.32;;;4.72;;
78844;SDS011;68195;50.854;2.860;2024-01-25T08:05:06;12.35;;;3.78;;
78844;SDS011;68195;50.854;2.860;2024-01-25T08:07:35;11.38;;;4.00;;
78844;SDS011;68195;50.854;2.860;2024-01-25T08:10:02;15.82;;;3.80;;
78844;SDS011;68195;50.854;2.860;2024-01-25T08:12:29;16.42;;;3.85;;
78844;SDS011;68195;50.854;2.860;2024-01-25T08:14:57;11.60;;;3.80;;
78844;SDS011;68195;50.854;2.860;2024-01-25T08:17:27;15.48;;;3.90;;
78844;SDS011;68195;50.854;2.860;2024-01-25T08:19:55;9.10;;;3.50;;
78844;SDS011;68195;50.854;2.860;2024-01-25T08:22:24;15.48;;;4.20;;
78844;SDS011;68195;50.854;2.860;2024-01-25T08:24:50;11.38;;;3.72;;
78844;SDS011;68195;50.854;2.860;2024-01-25T08:27:18;12.55;;;3.35;;
78844;SDS011;68195;50.854;2.860;2024-01-25T08:29:46;13.15;;;4.05;;
78844;SDS011;68195;50.854;2.860;2024-01-25T08:32:16;12.95;;;3.78;;
78844;SDS011;68195;50.854;2.860;2024-01-25T08:34:43;12.43;;;3.97;;
78844;SDS011;68195;50.854;2.860;2024-01-25T08:37:09;14.55;;;3.40;;
78844;SDS011;68195;50.854;2.860;2024-01-25T08:39:34;20.83;;;5.07;;
78844;SDS011;68195;50.854;2.860;2024-01-25T08:42:02;14.82;;;4.15;;
78844;SDS011;68195;50.854;2.860;2024-01-25T08:44:33;13.73;;;3.28;;
78844;SDS011;68195;50.854;2.860;2024-01-25T08:47:02;8.32;;;3.00;;
78844;SDS011;68195;50.854;2.860;2024-01-25T08:49:29;13.05;;;4.18;;
78844;SDS011;68195;50.854;2.860;2024-01-25T08:51:56;16.17;;;4.30;;
78844;SDS011;68195;50.854;2.860;2024-01-25T08:54:22;9.68;;;3.22;;
78844;SDS011;68195;50.854;2.860;2024-01-25T08:56:47;10.45;;;3.10;;
78844;SDS011;68195;50.854;2.860;2024-01-25T08:59:13;20.38;;;4.43;;
78844;SDS011;68195;50.854;2.860;2024-01-25T09:01:38;14.07;;;4.40;;
78844;SDS011;68195;50.854;2.860;2024-01-25T09:04:03;17.50;;;4.78;;
78844;SDS011;68195;50.854;2.860;2024-01-25T09:06:29;11.88;;;3.97;;
78844;SDS011;68195;50.854;2.860;2024-01-25T09:08:59;14.75;;;3.78;;
78844;SDS011;68195;50.854;2.860;2024-01-25T09:11:25;17.77;;;6.28;;
78844;SDS011;68195;50.854;2.860;2024-01-25T09:13:50;17.92;;;4.43;;
78844;SDS011;68195;50.854;2.860;2024-01-25T09:16:16;16.10;;;4.65;;
78844;SDS011;68195;50.854;2.860;2024-01-25T09:18:47;19.65;;;4.45;;
78844;SDS011;68195;50.854;2.860;2024-01-25T09:21:17;15.05;;;4.70;;
78844;SDS011;68195;50.854;2.860;2024-01-25T09:23:42;15.32;;;4.32;;
78844;SDS011;68195;50.854;2.860;2024-01-25T09:26:13;13.90;;;4.63;;
78844;SDS011;68195;50.854;2.860;2024-01-25T09:28:39;13.13;;;4.43;;
78844;SDS011;68195;50.854;2.860;2024-01-25T09:31:04;10.40;;;4.03;;
78844;SDS011;68195;50.854;2.860;2024-01-25T09:33:32;16.92;;;5.45;;
78844;SDS011;68195;50.854;2.860;2024-01-25T09:36:00;8.32;;;4.05;;
78844;SDS011;68195;50.854;2.860;2024-01-25T09:38:28;12.55;;;3.85;;
78844;SDS011;68195;50.854;2.860;2024-01-25T09:40:53;14.27;;;4.43;;
78844;SDS011;68195;50.854;2.860;2024-01-25T09:43:18;13.32;;;4.50;;
78844;SDS011;68195;50.854;2.860;2024-01-25T09:45:48;11.38;;;3.88;;
78844;SDS011;68195;50.854;2.860;2024-01-25T09:48:15;9.27;;;3.80;;
78844;SDS011;68195;50.854;2.860;2024-01-25T09:50:46;11.98;;;3.88;;
78844;SDS011;68195;50.854;2.860;2024-01-25T09:53:15;10.43;;;3.67;;
78844;SDS011;68195;50.854;2.860;2024-01-25T09:55:46;13.43;;;3.97;;
78844;SDS011;68195;50.854;2.860;2024-01-25T10:01:13;6.55;;;3.42;;
78844;SDS011;68195;50.854;2.860;2024-01-25T10:03:42;6.57;;;3.25;;
78844;SDS011;68195;50.854;2.860;2024-01-25T10:06:13;8.95;;;4.03;;
78844;SDS011;68195;50.854;2.860;2024-01-25T10:08:39;8.55;;;3.90;;
78844;SDS011;68195;50.854;2.860;2024-01-25T10:11:05;10.25;;;4.18;;
78844;SDS011;68195;50.854;2.860;2024-01-25T10:15:57;11.55;;;4.30;;
78844;SDS011;68195;50.854;2.860;2024-01-25T10:18:23;10.60;;;3.20;;
78844;SDS011;68195;50.854;2.860;2024-01-25T10:20:50;8.90;;;4.50;;
78844;SDS011;68195;50.854;2.860;2024-01-25T10:23:17;9.43;;;3.33;;
78844;SDS011;68195;50.854;2.860;2024-01-25T10:25:43;9.05;;;2.88;;
78844;SDS011;68195;50.854;2.860;2024-01-25T10:28:11;9.23;;;2.83;;
78844;SDS011;68195;50.854;2.860;2024-01-25T10:30:42;5.60;;;2.95;;
78844;SDS011;68195;50.854;2.860;2024-01-25T10:33:09;10.57;;;3.20;;
78844;SDS011;68195;50.854;2.860;2024-01-25T10:35:38;7.55;;;3.97;;
78844;SDS011;68195;50.854;2.860;2024-01-25T10:38:10;8.13;;;2.58;;
78844;SDS011;68195;50.854;2.860;2024-01-25T10:40:39;7.50;;;2.80;;
78844;SDS011;68195;50.854;2.860;2024-01-25T10:43:08;8.30;;;3.50;;
78844;SDS011;68195;50.854;2.860;2024-01-25T10:45:36;11.32;;;3.60;;
78844;SDS011;68195;50.854;2.860;2024-01-25T10:48:04;12.80;;;4.10;;
78844;SDS011;68195;50.854;2.860;2024-01-25T10:50:32;7.38;;;3.33;;
78844;SDS011;68195;50.854;2.860;2024-01-25T10:53:00;10.65;;;2.80;;
78844;SDS011;68195;50.854;2.860;2024-01-25T10:55:30;9.65;;;3.85;;
78844;SDS011;68195;50.854;2.860;2024-01-25T10:57:57;8.68;;;3.50;;
78844;SDS011;68195;50.854;2.860;2024-01-25T11:00:23;6.32;;;3.22;;
78844;SDS011;68195;50.854;2.860;2024-01-25T11:02:48;8.88;;;4.10;;
78844;SDS011;68195;50.854;2.860;2024-01-25T11:05:16;8.38;;;3.65;;
78844;SDS011;68195;50.854;2.860;2024-01-25T11:07:47;10.07;;;4.28;;
78844;SDS011;68195;50.854;2.860;2024-01-25T11:10:17;11.43;;;4.90;;
78844;SDS011;68195;50.854;2.860;2024-01-25T11:12:48;9.85;;;3.97;;
78844;SDS011;68195;50.854;2.860;2024-01-25T11:15:21;11.27;;;3.88;;
78844;SDS011;68195;50.854;2.860;2024-01-25T11:17:50;6.03;;;3.70;;
78844;SDS011;68195;50.854;2.860;2024-01-25T11:20:19;8.73;;;3.35;;
78844;SDS011;68195;50.854;2.860;2024-01-25T11:22:54;7.90;;;4.28;;
78844;SDS011;68195;50.854;2.860;2024-01-25T11:25:29;9.85;;;4.10;;
78844;SDS011;68195;50.854;2.860;2024-01-25T11:27:56;12.38;;;4.07;;
78844;SDS011;68195;50.854;2.860;2024-01-25T11:30:22;12.35;;;4.15;;
78844;SDS011;68195;50.854;2.860;2024-01-25T11:32:47;12.02;;;4.35;;
78844;SDS011;68195;50.854;2.860;2024-01-25T11:35:13;10.32;;;3.75;;
78844;SDS011;68195;50.854;2.860;2024-01-25T11:37:49;8.15;;;3.53;;
78844;SDS011;68195;50.854;2.860;2024-01-25T11:40:17;12.52;;;3.88;;
78844;SDS011;68195;50.854;2.860;2024-01-25T11:45:11;8.90;;;3.03;;
78844;SDS011;68195;50.854;2.860;2024-01-25T11:47:37;6.55;;;3.25;;
78844;SDS011;68195;50.854;2.860;2024-01-25T11:50:04;8.05;;;3.72;;
78844;SDS011;68195;50.854;2.860;2024-01-25T11:52:34;6.63;;;3.35;;
78844;SDS011;68195;50.854;2.860;2024-01-25T11:55:02;7.35;;;3.65;;
78844;SDS011;68195;50.854;2.860;2024-01-25T11:57:34;6.47;;;3.30;;
78844;SDS011;68195;50.854;2.860;2024-01-25T12:00:02;10.88;;;3.80;;
78844;SDS011;68195;50.854;2.860;2024-01-25T12:02:32;8.85;;;3.10;;
78844;SDS011;68195;50.854;2.860;2024-01-25T12:04:58;6.80;;;3.40;;
78844;SDS011;68195;50.854;2.860;2024-01-25T12:07:24;9.70;;;4.00;;
78844;SDS011;68195;50.854;2.860;2024-01-25T12:12:24;7.70;;;3.40;;
78844;SDS011;68195;50.854;2.860;2024-01-25T12:14:56;7.20;;;4.68;;
78844;SDS011;68195;50.854;2.860;2024-01-25T12:17:28;5.13;;;3.20;;
78844;SDS011;68195;50.854;2.860;2024-01-25T12:19:56;6.50;;;2.90;;
78844;SDS011;68195;50.854;2.860;2024-01-25T12:24:52;7.35;;;2.88;;
78844;SDS011;68195;50.854;2.860;2024-01-25T12:27:19;14.60;;;4.07;;
78844;SDS011;68195;50.854;2.860;2024-01-25T12:29:48;8.13;;;3.72;;
78844;SDS011;68195;50.854;2.860;2024-01-25T12:32:16;8.15;;;3.50;;
78844;SDS011;68195;50.854;2.860;2024-01-25T12:34:52;7.65;;;4.55;;
78844;SDS011;68195;50.854;2.860;2024-01-25T12:37:23;4.85;;;3.55;;
78844;SDS011;68195;50.854;2.860;2024-01-25T12:39:54;9.02;;;3.67;;
78844;SDS011;68195;50.854;2.860;2024-01-25T12:42:22;6.22;;;3.40;;
78844;SDS011;68195;50.854;2.860;2024-01-25T12:44:51;8.10;;;3.47;;
78844;SDS011;68195;50.854;2.860;2024-01-25T12:47:21;8.52;;;3.90;;
78844;SDS011;68195;50.854;2.860;2024-01-25T12:49:47;8.13;;;3.85;;
78844;SDS011;68195;50.854;2.860;2024-01-25T12:52:13;5.90;;;3.55;;
78844;SDS011;68195;50.854;2.860;2024-01-25T12:54:40;7.93;;;3.78;;
78844;SDS011;68195;50.854;2.860;2024-01-25T12:57:06;5.43;;;3.42;;
78844;SDS011;68195;50.854;2.860;2024-01-25T12:59:32;5.55;;;4.20;;
78844;SDS011;68195;50.854;2.860;2024-01-25T13:02:01;7.93;;;4.30;;
78844;SDS011;68195;50.854;2.860;2024-01-25T13:04:27;7.15;;;3.85;;
78844;SDS011;68195;50.854;2.860;2024-01-25T13:06:55;7.10;;;4.07;;
78844;SDS011;68195;50.854;2.860;2024-01-25T13:09:21;9.35;;;4.25;;
78844;SDS011;68195;50.854;2.860;2024-01-25T13:11:50;7.72;;;3.97;;
78844;SDS011;68195;50.854;2.860;2024-01-25T13:14:21;8.57;;;4.32;;
78844;SDS011;68195;50.854;2.860;2024-01-25T13:16:49;9.25;;;4.13;;
78844;SDS011;68195;50.854;2.860;2024-01-25T13:19:15;8.43;;;4.43;;
78844;SDS011;68195;50.854;2.860;2024-01-25T13:21:40;8.00;;;4.10;;
78844;SDS011;68195;50.854;2.860;2024-01-25T13:24:09;7.28;;;4.57;;
78844;SDS011;68195;50.854;2.860;2024-01-25T13:26:35;9.02;;;3.85;;
78844;SDS011;68195;50.854;2.860;2024-01-25T13:29:01;8.00;;;4.13;;
78844;SDS011;68195;50.854;2.860;2024-01-25T13:31:26;6.22;;;3.60;;
78844;SDS011;68195;50.854;2.860;2024-01-25T13:33:56;5.80;;;4.45;;
78844;SDS011;68195;50.854;2.860;2024-01-25T13:36:22;7.03;;;3.63;;
78844;SDS011;68195;50.854;2.860;2024-01-25T13:38:47;12.15;;;4.57;;
78844;SDS011;68195;50.854;2.860;2024-01-25T13:41:17;9.70;;;4.05;;
78844;SDS011;68195;50.854;2.860;2024-01-25T13:43:43;8.57;;;4.20;;
78844;SDS011;68195;50.854;2.860;2024-01-25T13:46:08;7.90;;;4.10;;
78844;SDS011;68195;50.854;2.860;2024-01-25T13:48:36;6.93;;;4.10;;
78844;SDS011;68195;50.854;2.860;2024-01-25T13:51:01;7.50;;;4.15;;
78844;SDS011;68195;50.854;2.860;2024-01-25T13:53:26;7.32;;;4.10;;
78844;SDS011;68195;50.854;2.860;2024-01-25T13:55:54;7.18;;;4.50;;
78844;SDS011;68195;50.854;2.860;2024-01-25T13:58:22;8.65;;;3.92;;
78844;SDS011;68195;50.854;2.860;2024-01-25T14:00:47;5.50;;;4.10;;
78844;SDS011;68195;50.854;2.860;2024-01-25T14:03:14;7.40;;;3.55;;
78844;SDS011;68195;50.854;2.860;2024-01-25T14:05:44;9.85;;;4.18;;
78844;SDS011;68195;50.854;2.860;2024-01-25T14:08:14;7.75;;;3.70;;
78844;SDS011;68195;50.854;2.860;2024-01-25T14:10:39;8.25;;;4.35;;
78844;SDS011;68195;50.854;2.860;2024-01-25T14:13:08;7.75;;;4.15;;
78844;SDS011;68195;50.854;2.860;2024-01-25T14:15:36;9.35;;;3.75;;
78844;SDS011;68195;50.854;2.860;2024-01-25T14:18:01;5.47;;;3.78;;
78844;SDS011;68195;50.854;2.860;2024-01-25T14:20:27;8.50;;;3.80;;
78844;SDS011;68195;50.854;2.860;2024-01-25T14:22:55;6.10;;;3.72;;
78844;SDS011;68195;50.854;2.860;2024-01-25T14:25:22;8.23;;;3.30;;
78844;SDS011;68195;50.854;2.860;2024-01-25T14:27:50;8.50;;;4.15;;
78844;SDS011;68195;50.854;2.860;2024-01-25T14:30:18;7.65;;;4.07;;
78844;SDS011;68195;50.854;2.860;2024-01-25T14:32:43;6.05;;;3.40;;
78844;SDS011;68195;50.854;2.860;2024-01-25T14:35:12;7.13;;;3.60;;
78844;SDS011;68195;50.854;2.860;2024-01-25T14:37:38;11.15;;;3.85;;
78844;SDS011;68195;50.854;2.860;2024-01-25T14:40:06;6.93;;;3.95;;
78844;SDS011;68195;50.854;2.860;2024-01-25T14:42:32;7.38;;;3.38;;
78844;SDS011;68195;50.854;2.860;2024-01-25T14:44:58;7.93;;;4.30;;
78844;SDS011;68195;50.854;2.860;2024-01-25T14:47:25;6.57;;;3.72;;
78844;SDS011;68195;50.854;2.860;2024-01-25T14:49:56;4.32;;;3.03;;
78844;SDS011;68195;50.854;2.860;2024-01-25T14:52:21;9.13;;;3.65;;
78844;SDS011;68195;50.854;2.860;2024-01-25T14:54:49;6.07;;;3.63;;
78844;SDS011;68195;50.854;2.860;2024-01-25T14:57:14;7.43;;;3.83;;
78844;SDS011;68195;50.854;2.860;2024-01-25T14:59:40;4.70;;;2.72;;